KMIC/MIC METAR and TAF weather

Enter ICAO airport designator
Station Type Date Time Source
KMIC METAR 2019/08/22 19:53 UTC NOAA

KMIC 221953Z 36007KT 10SM BKN060 22/07 A3008 RMK AO2 SLP183 T02170072


Station Type Date Time Source
KMIC Decoded METAR 2019/08/22 19:53 UTC NOAA

Station name not available
Aug 22, 2019 - 03:53 PM EDT / 2019.08.22 1953 UTC
Wind: from the N (360 degrees) at 8 MPH (7 KT):0
Visibility: 10 mile(s):0
Sky conditions: mostly cloudy
Temperature: 71.1 F (21.7 C)
Dew Point: 45.0 F (7.2 C)
Relative Humidity: 39%
Pressure (altimeter): 30.08 in. Hg (1018 hPa)
ob: KMIC 221953Z 36007KT 10SM BKN060 22/07 A3008 RMK AO2 SLP183 T02170072
cycle: 20

Station Type Date Time Source
KMIC TAF UTC NOAA

Error!

Example: see airport list